Time;durP1;ratioP1;P1;durP2;ratioP2;P2;SDS_P1;SDS_P2;PMS_P1;PMS_P2;Temp;Humidity;BMP_temperature;BMP_pressure;BME280_temperature;BME280_humidity;BME280_pressure;Samples;Min_cycle;Max_cycle;Signal;HPM_P1;HPM_P2
2022/05/02 07:07:25;;;;;;;8.80;7.90;;;11.20;99.90;;;;;;5090902;27;21073;-71
2022/05/02 07:10:20;;;;;;;10.63;7.38;;;11.50;99.90;;;;;;5090907;28;20275;-71
2022/05/02 07:12:53;;;;;;;14.00;7.85;;;11.70;99.90;;;;;;5088080;28;20180;-71
2022/05/02 07:15:35;;;;;;;10.90;7.85;;;11.80;99.90;;;;;;5090693;28;20168;-71
2022/05/02 07:18:23;;;;;;;8.45;7.63;;;11.90;99.90;;;;;;5089436;28;20320;-71
2022/05/02 07:21:03;;;;;;;8.63;7.28;;;12.00;99.90;;;;;;5090637;28;20645;-71
2022/05/02 07:24:08;;;;;;;14.73;7.60;;;12.00;99.90;;;;;;5090583;28;20172;-71
2022/05/02 07:26:37;;;;;;;10.30;7.65;;;12.10;99.90;;;;;;5090408;28;20270;-71
2022/05/02 07:29:04;;;;;;;8.88;7.57;;;12.20;99.90;;;;;;5090454;28;20160;-71
2022/05/02 07:31:31;;;;;;;9.77;8.15;;;12.30;99.90;;;;;;5090510;28;20689;-71
2022/05/02 07:33:57;;;;;;;10.85;8.27;;;12.40;99.90;;;;;;5090416;28;20576;-71
2022/05/02 07:36:25;;;;;;;11.00;7.43;;;12.40;99.90;;;;;;5090341;28;20259;-71
2022/05/02 07:39:04;;;;;;;8.77;7.25;;;12.40;99.90;;;;;;5090319;28;20530;-71
2022/05/02 07:41:32;;;;;;;13.07;7.28;;;12.50;99.90;;;;;;5090181;28;20183;-71
2022/05/02 07:44:09;;;;;;;11.23;7.47;;;12.40;99.90;;;;;;5090169;28;20234;-71
2022/05/02 07:46:43;;;;;;;11.68;8.00;;;12.40;99.90;;;;;;5088718;28;20207;-71
2022/05/02 07:49:10;;;;;;;8.65;7.75;;;12.40;99.90;;;;;;5090062;28;20244;-71
2022/05/02 07:51:50;;;;;;;9.02;8.02;;;12.40;99.90;;;;;;5090046;28;20171;-71
2022/05/02 07:54:21;;;;;;;9.05;7.38;;;12.40;99.90;;;;;;5090041;28;20164;-71
2022/05/02 07:56:49;;;;;;;9.10;8.23;;;12.40;99.90;;;;;;5090019;28;20209;-71
2022/05/02 07:59:16;;;;;;;8.43;7.63;;;12.40;99.90;;;;;;5089857;28;20515;-71
2022/05/02 08:01:43;;;;;;;8.52;7.15;;;12.40;99.90;;;;;;5088739;28;20736;-71
2022/05/02 08:04:13;;;;;;;9.82;7.43;;;12.30;99.90;;;;;;5089844;28;20225;-71
2022/05/02 08:07:15;;;;;;;8.52;7.63;;;12.30;99.90;;;;;;5089604;28;20269;-71
2022/05/02 08:09:40;;;;;;;10.60;8.18;;;12.30;99.90;;;;;;5089727;28;20167;-71
2022/05/02 08:12:12;;;;;;;10.93;8.45;;;12.30;99.90;;;;;;5089706;28;20519;-71
2022/05/02 08:15:08;;;;;;;8.35;7.65;;;12.30;99.90;;;;;;5089633;28;20179;-71
2022/05/02 08:17:58;;;;;;;8.48;7.68;;;12.30;99.90;;;;;;5079555;28;20168;-71
2022/05/02 08:20:45;;;;;;;14.25;7.55;;;12.30;99.90;;;;;;5076051;28;20625;-71
2022/05/02 08:27:15;;;;;;;9.55;8.63;;;12.30;99.90;;;;;;5075976;28;20202;-71
2022/05/02 08:30:02;;;;;;;11.18;7.90;;;12.40;99.90;;;;;;5074631;28;20172;-71
2022/05/02 08:32:50;;;;;;;10.23;7.70;;;12.40;99.90;;;;;;5075802;28;20522;-71
2022/05/02 08:35:30;;;;;;;14.40;8.00;;;12.40;99.90;;;;;;5075781;28;20176;-71
2022/05/02 08:38:40;;;;;;;11.05;7.78;;;12.50;99.90;;;;;;5075764;28;20751;-71
2022/05/02 08:41:08;;;;;;;9.30;7.90;;;12.60;99.90;;;;;;5073742;28;20242;-71
2022/05/02 08:44:22;;;;;;;8.98;8.15;;;12.70;99.90;;;;;;5075692;28;20168;-71
2022/05/02 08:47:23;;;;;;;14.82;8.10;;;12.70;99.90;;;;;;5074244;28;20200;-71
2022/05/02 08:50:06;;;;;;;10.68;7.60;;;12.70;99.90;;;;;;5075570;28;20242;-71
2022/05/02 08:53:03;;;;;;;8.60;7.90;;;12.60;99.90;;;;;;5075440;28;20300;-71
2022/05/02 08:55:56;;;;;;;11.63;8.90;;;12.70;99.90;;;;;;5075369;28;20180;-71
2022/05/02 08:58:33;;;;;;;9.60;7.78;;;12.80;99.90;;;;;;5074103;28;20186;-71
2022/05/02 09:01:35;;;;;;;11.35;7.90;;;12.80;99.90;;;;;;5075741;28;20168;-71
2022/05/02 09:04:26;;;;;;;13.35;8.57;;;12.80;99.90;;;;;;5075270;28;20187;-71
2022/05/02 09:07:04;;;;;;;11.68;8.25;;;12.90;99.90;;;;;;5074615;28;20290;-71
2022/05/02 09:10:21;;;;;;;8.55;7.85;;;13.00;99.90;;;;;;5075142;28;20172;-71
2022/05/02 09:13:03;;;;;;;10.02;7.78;;;13.00;99.90;;;;;;5073798;28;20271;-71
2022/05/02 09:16:00;;;;;;;11.85;8.73;;;13.10;99.90;;;;;;5075005;28;20168;-71
2022/05/02 09:19:01;;;;;;;13.60;9.57;;;13.10;99.90;;;;;;5074003;28;20183;-71
2022/05/02 09:21:45;;;;;;;11.02;8.38;;;13.10;99.90;;;;;;5074942;28;20160;-71
2022/05/02 09:24:43;;;;;;;9.85;8.85;;;13.20;99.90;;;;;;5073521;28;20187;-71
2022/05/02 09:27:11;;;;;;;19.25;8.68;;;13.20;99.90;;;;;;5073526;28;20267;-71
2022/05/02 09:30:04;;;;;;;10.60;7.90;;;13.20;99.90;;;;;;5073726;28;20218;-71
2022/05/02 09:32:59;;;;;;;9.93;7.93;;;13.30;99.90;;;;;;5074730;28;20171;-71
2022/05/02 09:35:30;;;;;;;15.50;8.90;;;13.30;99.90;;;;;;5073293;28;20176;-71
2022/05/02 09:38:14;;;;;;;14.60;7.90;;;13.30;99.90;;;;;;5074533;28;20172;-71
2022/05/02 09:40:42;;;;;;;12.77;8.48;;;13.40;99.90;;;;;;5074439;28;20200;-71
2022/05/02 09:43:17;;;;;;;9.27;7.85;;;13.40;99.90;;;;;;5074442;28;20549;-71
2022/05/02 09:49:34;;;;;;;12.75;9.25;;;13.50;99.90;;;;;;5092477;28;20176;-71
2022/05/02 09:52:26;;;;;;;11.68;9.60;;;13.50;99.90;;;;;;5092478;28;20160;-71
2022/05/02 09:58:31;;;;;;;10.88;9.77;;;13.70;99.90;;;;;;5074310;28;20183;-71
2022/05/02 10:01:23;;;;;;;13.38;9.20;;;13.80;99.90;;;;;;5074145;28;20245;-71
2022/05/02 10:04:08;;;;;;;12.05;9.38;;;13.80;99.90;;;;;;5074109;28;20179;-71
2022/05/02 10:06:37;;;;;;;10.18;9.18;;;13.80;99.90;;;;;;5073731;28;20268;-71
2022/05/02 10:09:24;;;;;;;15.50;10.43;;;13.90;99.90;;;;;;5073958;28;20731;-71
2022/05/02 10:12:24;;;;;;;11.95;10.40;;;14.00;99.90;;;;;;5073606;28;20185;-71
2022/05/02 10:15:20;;;;;;;10.52;9.45;;;14.00;99.90;;;;;;5071813;28;20383;-71
2022/05/02 10:18:11;;;;;;;15.48;9.55;;;14.00;99.90;;;;;;5073814;28;20172;-71
2022/05/02 10:20:56;;;;;;;11.98;9.13;;;14.10;99.90;;;;;;5073786;28;20169;-71
2022/05/02 10:23:27;;;;;;;12.60;10.32;;;14.10;99.90;;;;;;5073767;28;20230;-71
2022/05/02 10:26:14;;;;;;;11.43;9.77;;;14.20;99.90;;;;;;5073595;28;20200;-71
2022/05/02 10:29:17;;;;;;;14.23;9.30;;;14.10;99.90;;;;;;5073701;28;20167;-71
2022/05/02 10:32:00;;;;;;;13.50;10.13;;;14.20;99.90;;;;;;5073612;28;20160;-71
2022/05/02 10:34:28;;;;;;;10.02;8.43;;;14.20;99.90;;;;;;5072365;28;20309;-71
2022/05/02 10:36:56;;;;;;;9.50;8.60;;;14.20;99.90;;;;;;5073515;28;20164;-71
2022/05/02 10:39:41;;;;;;;9.70;8.70;;;14.40;99.90;;;;;;5073284;28;20696;-71
2022/05/02 10:42:10;;;;;;;15.02;8.93;;;14.50;99.90;;;;;;5073441;28;20188;-71
2022/05/02 10:45:01;;;;;;;12.48;9.55;;;14.60;99.90;;;;;;5073388;28;20629;-71
2022/05/02 10:47:40;;;;;;;9.63;8.63;;;14.70;99.90;;;;;;5073444;28;20529;-71
2022/05/02 10:50:20;;;;;;;9.35;8.45;;;14.70;99.90;;;;;;5073349;28;20168;-71
2022/05/02 10:52:46;;;;;;;10.50;8.63;;;14.80;99.90;;;;;;5073394;28;20294;-71
2022/05/02 10:55:32;;;;;;;9.88;8.88;;;14.80;99.90;;;;;;5073271;28;20200;-71
2022/05/02 10:58:04;;;;;;;9.05;8.27;;;14.90;99.90;;;;;;5073338;28;20259;-70
2022/05/02 11:00:30;;;;;;;8.82;7.90;;;15.00;99.90;;;;;;5073270;28;20171;-71
2022/05/02 11:03:28;;;;;;;10.85;8.07;;;15.10;99.90;;;;;;5073203;28;20171;-71
2022/05/02 11:06:14;;;;;;;10.18;8.27;;;15.10;99.90;;;;;;5072616;28;20231;-71
2022/05/02 11:08:50;;;;;;;11.45;8.32;;;15.30;99.90;;;;;;5073160;28;20161;-71
2022/05/02 11:11:33;;;;;;;9.02;7.95;;;15.40;99.90;;;;;;5073052;28;20200;-71
2022/05/02 11:14:13;;;;;;;10.68;8.15;;;15.60;99.90;;;;;;5073081;28;20731;-71
2022/05/02 11:16:55;;;;;;;8.57;7.72;;;15.70;99.90;;;;;;5073178;28;20180;-71
2022/05/02 11:22:28;;;;;;;9.73;8.55;;;15.90;99.90;;;;;;5073095;28;20182;-71
2022/05/02 11:25:06;;;;;;;9.15;8.25;;;16.00;99.90;;;;;;5072917;28;20199;-71
2022/05/02 11:28:10;;;;;;;8.48;7.13;;;16.20;99.90;;;;;;5071716;28;20251;-71
2022/05/02 11:30:50;;;;;;;8.60;7.80;;;16.30;99.90;;;;;;5072954;28;20160;-71
2022/05/02 11:33:21;;;;;;;8.82;7.95;;;16.50;99.90;;;;;;5072997;28;20649;-71
2022/05/02 11:36:00;;;;;;;8.55;7.72;;;16.40;99.90;;;;;;5072572;28;20179;-71
2022/05/02 11:38:54;;;;;;;11.70;8.10;;;16.50;99.90;;;;;;5071527;28;20175;-71
2022/05/02 11:41:22;;;;;;;8.65;7.95;;;16.60;99.90;;;;;;5072648;28;20179;-71
2022/05/02 11:43:49;;;;;;;12.77;9.15;;;16.60;99.90;;;;;;5072712;28;20160;-71
2022/05/02 11:46:20;;;;;;;9.52;8.73;;;16.70;99.90;;;;;;5072495;28;20196;-71
2022/05/02 11:48:53;;;;;;;9.10;8.20;;;16.70;99.90;;;;;;5072788;28;20168;-71
2022/05/02 11:51:40;;;;;;;11.88;8.85;;;16.70;99.90;;;;;;5072783;28;20171;-71
2022/05/02 11:54:28;;;;;;;10.10;9.15;;;16.50;99.90;;;;;;5075393;28;20553;-71
2022/05/02 11:57:20;;;;;;;11.10;9.23;;;16.40;99.90;;;;;;5076541;28;20221;-71
2022/05/02 12:00:09;;;;;;;10.20;8.73;;;16.40;99.90;;;;;;5076451;28;20194;-71
2022/05/02 12:02:38;;;;;;;9.63;8.63;;;16.40;99.90;;;;;;5076348;28;20176;-71
2022/05/02 12:05:21;;;;;;;9.45;8.10;;;16.40;99.90;;;;;;5074774;28;20277;-71
2022/05/02 12:07:53;;;;;;;11.18;8.85;;;16.40;99.90;;;;;;5076333;28;20169;-71
2022/05/02 12:10:39;;;;;;;13.25;8.73;;;16.50;99.90;;;;;;5076251;28;20199;-71
2022/05/02 12:13:12;;;;;;;12.77;9.07;;;16.60;99.90;;;;;;5076205;28;20169;-71
2022/05/02 12:15:57;;;;;;;9.57;7.88;;;16.70;99.90;;;;;;5076237;28;20160;-71
2022/05/02 12:18:37;;;;;;;8.98;8.20;;;16.90;99.90;;;;;;5076082;28;20172;-70
2022/05/02 12:21:05;;;;;;;11.20;8.45;;;17.20;99.90;;;;;;5076077;28;20172;-71
2022/05/02 12:23:33;;;;;;;8.90;8.05;;;17.40;99.90;;;;;;5076019;28;20559;-71
2022/05/02 12:26:01;;;;;;;8.48;7.65;;;17.60;99.90;;;;;;5075842;28;20199;-71
2022/05/02 12:28:48;;;;;;;9.55;8.57;;;17.80;99.90;;;;;;5075917;28;20164;-71
2022/05/02 12:31:36;;;;;;;10.10;9.10;;;17.90;99.90;;;;;;5074550;28;20176;-71
2022/05/02 12:34:07;;;;;;;9.52;8.30;;;17.90;99.90;;;;;;5075879;28;20179;-71
2022/05/02 12:36:45;;;;;;;18.48;9.18;;;18.00;99.90;;;;;;5075741;28;20252;-71
2022/05/02 12:39:27;;;;;;;11.88;10.10;;;18.20;99.90;;;;;;5075729;28;20198;-71
2022/05/02 12:42:01;;;;;;;10.85;8.98;;;18.40;99.90;;;;;;5075536;28;20187;-71
2022/05/02 12:44:42;;;;;;;8.95;8.13;;;18.20;99.90;;;;;;5075534;28;20255;-71
2022/05/02 12:47:15;;;;;;;8.95;8.13;;;18.00;99.90;;;;;;5075576;28;20179;-71
2022/05/02 12:50:00;;;;;;;12.27;9.18;;;18.00;99.90;;;;;;5075683;28;20160;-71
2022/05/02 12:52:28;;;;;;;8.48;7.68;;;18.20;99.90;;;;;;5075422;28;20255;-71
2022/05/02 12:54:55;;;;;;;10.43;8.00;;;18.50;99.90;;;;;;5075233;28;20164;-71
2022/05/02 13:00:31;;;;;;;14.82;7.85;;;19.00;99.90;;;;;;5075208;28;20259;-71
2022/05/02 13:03:02;;;;;;;9.60;8.70;;;19.30;99.90;;;;;;5075040;28;20160;-71
2022/05/02 13:05:33;;;;;;;15.98;8.43;;;19.40;99.90;;;;;;5074749;28;20212;-71
2022/05/02 13:08:14;;;;;;;9.13;8.30;;;19.40;99.90;;;;;;5075041;28;20168;-71
2022/05/02 13:10:43;;;;;;;10.60;9.13;;;19.10;99.90;;;;;;5075053;28;20176;-71
2022/05/02 13:13:14;;;;;;;9.43;8.30;;;18.80;99.90;;;;;;5074929;28;20168;-71
2022/05/02 13:15:45;;;;;;;10.32;9.02;;;18.30;99.90;;;;;;5073489;28;20179;-71
2022/05/02 13:18:21;;;;;;;11.20;9.30;;;18.10;99.90;;;;;;5074732;28;20176;-71
2022/05/02 13:21:03;;;;;;;11.60;8.73;;;18.00;99.90;;;;;;5074766;28;20172;-71
2022/05/02 13:23:46;;;;;;;13.30;8.30;;;18.00;99.90;;;;;;5073566;28;20178;-71
2022/05/02 13:26:39;;;;;;;9.38;8.52;;;18.40;99.90;;;;;;5074748;28;20545;-71
2022/05/02 13:29:28;;;;;;;9.85;8.40;;;18.60;99.90;;;;;;5074718;28;20168;-71
2022/05/02 13:32:07;;;;;;;10.27;9.02;;;18.40;99.90;;;;;;5074701;28;20167;-71
2022/05/02 13:34:51;;;;;;;12.68;9.40;;;18.10;99.90;;;;;;5074648;28;20156;-71
2022/05/02 13:37:40;;;;;;;13.68;9.80;;;18.10;99.90;;;;;;5074793;28;20582;-71
2022/05/02 13:40:11;;;;;;;12.85;8.77;;;18.10;99.90;;;;;;5073217;28;20636;-71
2022/05/02 13:42:52;;;;;;;12.50;9.35;;;18.20;99.90;;;;;;5074497;28;20183;-71
2022/05/02 13:45:32;;;;;;;12.77;8.50;;;18.30;99.90;;;;;;5074299;28;20195;-71
2022/05/02 13:48:10;;;;;;;10.18;9.13;;;18.20;99.90;;;;;;5073132;28;20171;-71
2022/05/02 13:50:51;;;;;;;11.30;8.18;;;18.20;99.90;;;;;;5074301;28;20585;-71
2022/05/02 13:53:42;;;;;;;12.45;8.32;;;18.50;99.90;;;;;;5074249;28;20238;-71
2022/05/02 13:56:43;;;;;;;10.90;8.77;;;19.10;99.90;;;;;;5074259;28;20167;-71
2022/05/02 13:59:27;;;;;;;11.20;8.32;;;19.60;99.90;;;;;;5055496;28;20176;-71
2022/05/02 14:02:13;;;;;;;14.40;8.80;;;19.90;99.90;;;;;;5074061;28;20648;-71
2022/05/02 14:04:48;;;;;;;8.90;8.20;;;19.90;99.90;;;;;;5073639;28;20187;-71
2022/05/02 14:07:14;;;;;;;9.45;8.48;;;20.20;99.90;;;;;;5074082;28;20184;-71
2022/05/02 14:09:54;;;;;;;12.52;8.80;;;20.50;99.90;;;;;;5074002;28;20191;-71
2022/05/02 14:12:23;;;;;;;10.60;9.45;;;20.60;99.90;;;;;;5073905;28;20164;-71
2022/05/02 14:15:01;;;;;;;11.02;8.95;;;20.30;99.90;;;;;;5073284;28;20178;-72
2022/05/02 14:18:09;;;;;;;9.05;8.05;;;20.10;99.90;;;;;;5073827;28;20209;-71
2022/05/02 14:20:29;;;;;;;9.05;8.10;;;19.90;99.90;;;;;;5074342;28;20187;-71
2022/05/02 14:23:02;;;;;;;15.77;8.52;;;19.40;99.90;;;;;;5073713;28;20168;-72
2022/05/02 14:25:41;;;;;;;7.97;7.20;;;19.10;99.90;;;;;;5073634;28;20233;-72
2022/05/02 14:28:11;;;;;;;8.88;8.05;;;18.90;99.90;;;;;;5073730;28;20167;-72
2022/05/02 14:30:39;;;;;;;8.75;8.05;;;18.80;99.90;;;;;;5073576;28;20164;-72
2022/05/02 14:33:06;;;;;;;11.48;9.48;;;18.70;99.90;;;;;;5073566;28;20229;-72
2022/05/02 14:35:41;;;;;;;9.52;8.65;;;18.50;99.90;;;;;;5073517;28;20654;-72
2022/05/02 14:38:08;;;;;;;9.45;8.55;;;18.30;99.90;;;;;;5073742;28;20218;-72
2022/05/02 14:40:40;;;;;;;8.77;8.07;;;18.10;99.90;;;;;;5073484;28;20168;-72
2022/05/02 14:43:08;;;;;;;8.50;7.57;;;17.90;99.90;;;;;;5073475;28;20168;-72
2022/05/02 14:45:36;;;;;;;8.98;8.20;;;17.70;99.90;;;;;;5073277;28;20199;-72
2022/05/02 14:48:05;;;;;;;9.20;7.30;;;17.70;99.90;;;;;;5072165;28;20248;-72
2022/05/02 14:50:32;;;;;;;9.93;8.93;;;17.80;99.90;;;;;;5073341;28;20200;-72
2022/05/02 14:53:04;;;;;;;14.45;8.18;;;17.80;99.90;;;;;;5073354;28;20168;-72
2022/05/02 14:55:32;;;;;;;8.18;7.35;;;17.70;99.90;;;;;;5073380;28;20265;-72
2022/05/02 14:57:58;;;;;;;14.38;9.82;;;17.80;99.90;;;;;;5072042;28;20172;-72
2022/05/02 15:00:25;;;;;;;9.00;8.27;;;17.80;99.90;;;;;;5073285;28;20172;-72
2022/05/02 15:02:56;;;;;;;9.25;7.68;;;17.90;99.90;;;;;;5073282;28;20595;-72
2022/05/02 15:05:23;;;;;;;8.52;7.80;;;18.00;99.90;;;;;;5072990;28;20580;-72
2022/05/02 15:08:03;;;;;;;8.30;7.43;;;18.20;99.90;;;;;;5073290;28;20168;-72
2022/05/02 15:10:43;;;;;;;8.95;8.02;;;18.50;99.90;;;;;;5073218;28;20163;-72
2022/05/02 15:13:30;;;;;;;9.63;8.90;;;18.80;99.90;;;;;;5072868;28;20171;-72
2022/05/02 15:16:27;;;;;;;8.70;7.97;;;19.00;99.90;;;;;;5073120;28;20163;-71
2022/05/02 15:19:33;;;;;;;8.65;7.80;;;19.10;99.90;;;;;;5071907;28;20537;-71
2022/05/02 15:22:17;;;;;;;15.05;7.95;;;19.30;99.90;;;;;;5073144;28;20271;-71
2022/05/02 15:25:03;;;;;;;7.90;7.13;;;19.80;99.90;;;;;;5072994;28;20178;-71
2022/05/02 15:36:39;;;;;;;7.57;6.88;;;20.40;99.90;;;;;;5077067;28;20546;-71
2022/05/02 15:39:06;;;;;;;8.73;6.65;;;20.80;99.90;;;;;;5076965;28;20168;-72
2022/05/02 15:41:40;;;;;;;7.43;6.72;;;21.20;99.90;;;;;;5076651;28;20270;-72
2022/05/02 15:44:42;;;;;;;10.75;7.05;;;21.40;99.90;;;;;;5075517;28;20229;-72
2022/05/02 15:47:11;;;;;;;6.90;6.40;;;21.70;99.90;;;;;;5076311;28;20717;-72
2022/05/02 15:49:49;;;;;;;8.05;7.38;;;21.70;99.90;;;;;;5076660;28;20183;-72
2022/05/02 15:52:20;;;;;;;8.68;6.95;;;21.60;99.90;;;;;;5076636;28;20167;-72
2022/05/02 15:54:59;;;;;;;8.05;7.40;;;21.30;99.90;;;;;;5076580;28;20175;-72
2022/05/02 15:57:36;;;;;;;7.93;7.10;;;20.90;99.90;;;;;;5076553;28;20164;-72
2022/05/02 16:00:27;;;;;;;9.25;7.55;;;20.60;99.90;;;;;;5076479;28;20182;-71
2022/05/02 16:03:13;;;;;;;8.52;7.18;;;20.60;99.90;;;;;;5076638;28;20160;-72
2022/05/02 16:05:54;;;;;;;9.73;6.95;;;20.40;99.90;;;;;;5074800;28;20226;-72
2022/05/02 16:11:05;;;;;;;7.70;7.00;;;19.90;99.90;;;;;;5076583;28;20190;-71
2022/05/02 16:13:42;;;;;;;8.25;6.72;;;19.70;99.90;;;;;;5076213;28;20172;-70
2022/05/02 16:16:21;;;;;;;8.43;6.50;;;19.50;99.90;;;;;;5075869;28;20167;-69
2022/05/02 16:18:52;;;;;;;8.88;7.57;;;19.50;99.90;;;;;;5075946;28;20187;-70
2022/05/02 16:21:22;;;;;;;6.90;6.40;;;19.60;99.90;;;;;;5076097;28;20243;-70
2022/05/02 16:23:48;;;;;;;8.77;7.85;;;19.50;99.90;;;;;;5076029;28;20160;-69
2022/05/02 16:26:14;;;;;;;8.20;7.53;;;19.10;99.90;;;;;;5075922;28;20199;-70
2022/05/02 16:28:45;;;;;;;7.82;7.03;;;18.90;99.90;;;;;;5075956;28;20188;-70
2022/05/02 16:31:11;;;;;;;8.43;7.22;;;18.80;99.90;;;;;;5075924;28;20242;-69
2022/05/02 16:33:37;;;;;;;8.35;7.63;;;18.60;99.90;;;;;;5075924;28;20164;-69
2022/05/02 16:36:03;;;;;;;9.10;8.13;;;18.40;99.90;;;;;;5075834;28;20221;-70
2022/05/02 16:38:38;;;;;;;11.48;8.85;;;18.20;99.90;;;;;;5075438;28;20538;-69
2022/05/02 16:41:15;;;;;;;8.38;7.68;;;18.10;99.90;;;;;;5075529;28;20187;-69
2022/05/02 16:43:46;;;;;;;9.38;8.32;;;18.00;99.90;;;;;;5075806;28;20250;-70
2022/05/02 16:46:15;;;;;;;9.23;8.20;;;17.90;99.90;;;;;;5075540;28;20198;-69
2022/05/02 16:48:40;;;;;;;10.18;7.45;;;17.80;99.90;;;;;;5075664;28;20160;-69
2022/05/02 16:51:06;;;;;;;8.85;8.07;;;17.70;99.90;;;;;;5075613;28;20698;-70
2022/05/02 16:53:32;;;;;;;9.48;7.38;;;17.70;99.90;;;;;;5075494;28;20200;-69
2022/05/02 16:55:59;;;;;;;8.25;7.55;;;17.60;99.90;;;;;;5075560;28;20520;-69
2022/05/02 16:58:24;;;;;;;8.98;8.18;;;17.50;99.90;;;;;;5075505;28;20175;-69
2022/05/02 17:00:56;;;;;;;9.05;8.18;;;17.50;99.90;;;;;;5075354;28;20662;-69
2022/05/02 17:03:34;;;;;;;9.32;8.20;;;17.40;99.90;;;;;;5075386;28;20172;-69
2022/05/02 17:06:03;;;;;;;9.52;8.68;;;17.40;99.90;;;;;;5075112;28;20215;-69
2022/05/02 17:08:29;;;;;;;8.90;8.02;;;17.40;99.90;;;;;;5075349;28;20247;-69
2022/05/02 17:10:55;;;;;;;8.95;8.13;;;17.50;99.90;;;;;;5075247;28;20234;-69
2022/05/02 17:13:23;;;;;;;9.68;7.63;;;17.70;99.90;;;;;;5075109;28;20202;-69
2022/05/02 17:16:20;;;;;;;8.20;7.50;;;17.90;99.90;;;;;;5075105;28;20164;-69
2022/05/02 17:19:08;;;;;;;8.73;7.07;;;18.30;99.90;;;;;;5075064;28;20167;-70
2022/05/02 17:21:54;;;;;;;9.43;7.30;;;18.60;99.90;;;;;;5074978;28;20570;-70
2022/05/02 17:24:22;;;;;;;7.15;6.57;;;18.80;99.90;;;;;;5074977;28;20171;-70
2022/05/02 17:26:57;;;;;;;10.63;6.20;;;18.90;99.90;;;;;;5074810;28;20199;-70
2022/05/02 17:29:29;;;;;;;8.57;7.00;;;18.90;99.90;;;;;;5074924;28;20167;-70
2022/05/02 17:31:55;;;;;;;8.00;5.85;;;18.90;99.90;;;;;;5074791;28;20209;-70
2022/05/02 17:34:23;;;;;;;16.23;8.07;;;18.90;99.90;;;;;;5074745;28;20164;-70
2022/05/02 17:36:50;;;;;;;9.43;5.80;;;18.90;99.90;;;;;;5074658;28;20680;-69
2022/05/02 17:39:29;;;;;;;8.23;6.28;;;18.90;99.90;;;;;;5074667;28;20179;-70
2022/05/02 17:42:02;;;;;;;10.48;6.63;;;18.80;99.90;;;;;;5074517;28;20702;-70
2022/05/02 17:44:30;;;;;;;8.48;7.38;;;18.80;99.90;;;;;;5074526;28;20179;-70
2022/05/02 17:46:56;;;;;;;10.63;7.03;;;18.80;99.90;;;;;;5074439;28;20199;-70
2022/05/02 17:49:23;;;;;;;6.80;6.40;;;18.80;99.90;;;;;;5073570;28;20172;-70
2022/05/02 17:51:56;;;;;;;6.53;6.03;;;18.70;99.90;;;;;;5074416;28;20160;-69
2022/05/02 17:54:24;;;;;;;8.07;5.93;;;18.60;99.90;;;;;;5074367;28;20163;-69
2022/05/02 17:56:50;;;;;;;6.22;5.72;;;18.50;99.90;;;;;;5074252;28;20633;-70
2022/05/02 17:59:24;;;;;;;7.82;5.82;;;18.30;99.90;;;;;;5072925;28;20542;-69
2022/05/02 18:02:04;;;;;;;6.20;5.65;;;18.20;99.90;;;;;;5074173;28;20164;-69
2022/05/02 18:04:30;;;;;;;11.43;5.75;;;18.00;99.90;;;;;;5073944;28;20168;-70
2022/05/02 18:07:12;;;;;;;6.60;6.05;;;17.80;99.90;;;;;;5074013;28;20192;-69
2022/05/02 18:09:45;;;;;;;6.40;5.78;;;17.50;99.90;;;;;;5072730;28;20203;-69
2022/05/02 18:12:27;;;;;;;7.00;6.43;;;17.30;99.90;;;;;;5072734;28;20176;-70
2022/05/02 18:15:25;;;;;;;6.75;6.18;;;17.00;99.90;;;;;;5073960;28;20591;-69
2022/05/02 18:18:01;;;;;;;6.80;5.75;;;16.80;99.90;;;;;;5072630;28;20599;-69
2022/05/02 18:20:31;;;;;;;8.27;5.70;;;16.70;99.90;;;;;;5073819;28;20166;-69
2022/05/02 18:23:03;;;;;;;6.50;5.88;;;16.60;99.90;;;;;;5072553;28;20171;-69
2022/05/02 18:25:32;;;;;;;6.53;5.95;;;16.40;99.90;;;;;;5073706;28;20246;-69
2022/05/02 18:28:08;;;;;;;7.15;6.55;;;16.30;99.90;;;;;;5073749;28;20226;-69
2022/05/02 18:30:46;;;;;;;7.68;5.78;;;16.20;99.90;;;;;;5073766;28;20591;-69
2022/05/02 18:33:20;;;;;;;10.32;5.90;;;16.10;99.90;;;;;;5073676;28;20173;-69
2022/05/02 18:35:52;;;;;;;7.80;6.60;;;16.00;99.90;;;;;;5073654;28;20177;-69
